createdAt,value
2023-11-26T00:02:10.206Z,1.48
2023-11-26T00:04:37.024Z,1.52
2023-11-26T00:07:03.908Z,1.52
2023-11-26T00:09:34.482Z,1.77
2023-11-26T00:12:01.185Z,1.70
2023-11-26T00:14:27.995Z,2.55
2023-11-26T00:16:54.942Z,1.90
2023-11-26T00:19:21.850Z,1.83
2023-11-26T00:21:48.551Z,1.58
2023-11-26T00:24:15.286Z,1.70
2023-11-26T00:26:42.083Z,1.92
2023-11-26T00:29:08.935Z,1.30
2023-11-26T00:31:35.624Z,1.77
2023-11-26T00:34:02.406Z,1.75
2023-11-26T00:36:29.213Z,1.20
2023-11-26T00:38:55.892Z,2.15
2023-11-26T00:41:22.678Z,1.50
2023-11-26T00:43:49.455Z,1.65
2023-11-26T00:46:16.334Z,1.52
2023-11-26T00:48:43.069Z,1.20
2023-11-26T00:51:17.503Z,1.23
2023-11-26T00:53:44.226Z,1.48
2023-11-26T00:56:10.934Z,1.35
2023-11-26T00:58:37.703Z,1.77
2023-11-26T01:01:04.582Z,1.40
2023-11-26T01:03:31.478Z,1.40
2023-11-26T01:05:58.278Z,1.10
2023-11-26T01:08:25.045Z,1.30
2023-11-26T01:10:52.000Z,1.20
2023-11-26T01:13:18.747Z,1.40
2023-11-26T01:15:45.563Z,1.88
2023-11-26T01:18:12.403Z,1.10
2023-11-26T01:20:39.281Z,1.35
2023-11-26T01:23:06.060Z,1.33
2023-11-26T01:25:32.801Z,1.40
2023-11-26T01:27:59.497Z,1.30
2023-11-26T01:30:26.221Z,1.80
2023-11-26T01:32:53.031Z,1.35
2023-11-26T01:35:19.787Z,1.45
2023-11-26T01:37:46.557Z,1.25
2023-11-26T01:40:13.308Z,1.08
2023-11-26T01:42:39.985Z,1.23
2023-11-26T01:45:07.131Z,1.38
2023-11-26T01:47:34.401Z,1.15
2023-11-26T01:50:01.389Z,1.38
2023-11-26T01:52:28.452Z,1.42
2023-11-26T01:54:55.299Z,1.50
2023-11-26T01:57:22.226Z,0.90
2023-11-26T01:59:49.288Z,1.10
2023-11-26T02:02:18.362Z,1.50
2023-11-26T02:04:45.208Z,1.10
2023-11-26T02:07:13.353Z,1.35
2023-11-26T02:09:40.114Z,1.02
2023-11-26T02:12:10.749Z,1.40
2023-11-26T02:14:37.610Z,1.30
2023-11-26T02:17:04.632Z,1.27
2023-11-26T02:19:36.235Z,1.38
2023-11-26T02:22:03.535Z,1.08
2023-11-26T02:24:31.635Z,1.70
2023-11-26T02:26:58.648Z,1.50
2023-11-26T02:29:25.759Z,1.95
2023-11-26T02:31:52.545Z,1.10
2023-11-26T02:34:19.311Z,1.10
2023-11-26T02:36:46.264Z,1.23
2023-11-26T02:39:13.008Z,1.00
2023-11-26T02:41:39.788Z,1.02
2023-11-26T02:44:06.782Z,1.13
2023-11-26T02:46:33.541Z,0.90
2023-11-26T02:49:00.263Z,0.98
2023-11-26T02:51:26.983Z,0.95
2023-11-26T02:53:53.683Z,0.98
2023-11-26T02:56:20.415Z,1.33
2023-11-26T02:58:47.201Z,1.05
2023-11-26T03:01:20.366Z,1.00
2023-11-26T03:03:47.261Z,0.80
2023-11-26T03:06:14.598Z,1.15
2023-11-26T03:08:41.279Z,1.10
2023-11-26T03:11:08.036Z,1.10
2023-11-26T03:13:34.746Z,0.88
2023-11-26T03:16:03.487Z,1.27
2023-11-26T03:18:30.271Z,1.08
2023-11-26T03:20:57.035Z,1.10
2023-11-26T03:23:24.081Z,1.10
2023-11-26T03:25:51.741Z,1.20
2023-11-26T03:28:21.812Z,1.00
2023-11-26T03:30:48.608Z,0.90
2023-11-26T03:33:15.459Z,0.93
2023-11-26T03:35:42.603Z,1.30
2023-11-26T03:38:09.473Z,1.10
2023-11-26T03:40:36.809Z,0.88
2023-11-26T03:43:03.701Z,1.20
2023-11-26T03:45:30.471Z,1.20
2023-11-26T03:47:57.263Z,1.10
2023-11-26T03:50:24.848Z,1.00
2023-11-26T03:52:51.747Z,1.08
2023-11-26T03:55:18.712Z,0.93
2023-11-26T03:57:45.511Z,1.00
2023-11-26T04:00:12.798Z,1.00
2023-11-26T04:02:40.009Z,1.40
2023-11-26T04:05:08.272Z,0.80
2023-11-26T04:07:35.373Z,1.05
2023-11-26T04:10:02.143Z,1.25
2023-11-26T04:12:28.905Z,1.17
2023-11-26T04:15:02.509Z,1.10
2023-11-26T04:17:30.932Z,1.40
2023-11-26T04:19:57.693Z,1.25
2023-11-26T04:22:25.494Z,1.42
2023-11-26T04:24:53.000Z,1.10
2023-11-26T04:27:21.055Z,1.23
2023-11-26T04:29:48.311Z,1.10
2023-11-26T04:32:15.729Z,1.40
2023-11-26T04:34:42.465Z,1.30
2023-11-26T04:37:09.963Z,1.58
2023-11-26T04:39:37.445Z,1.55
2023-11-26T04:42:04.606Z,1.52
2023-11-26T04:44:31.617Z,1.48
2023-11-26T04:46:58.485Z,1.20
2023-11-26T04:49:25.468Z,1.30
2023-11-26T04:51:52.318Z,2.05
2023-11-26T04:54:19.445Z,1.77
2023-11-26T04:56:47.975Z,1.88
2023-11-26T04:59:14.690Z,1.77
2023-11-26T05:01:41.531Z,2.47
2023-11-26T05:04:08.400Z,1.85
2023-11-26T05:06:35.216Z,2.53
2023-11-26T05:09:01.956Z,2.35
2023-11-26T05:11:31.959Z,2.58
2023-11-26T05:13:58.724Z,2.60
2023-11-26T05:16:25.505Z,2.47
2023-11-26T05:18:52.245Z,2.25
2023-11-26T05:21:18.980Z,2.17
2023-11-26T05:23:45.710Z,1.65
2023-11-26T05:26:15.758Z,2.47
2023-11-26T05:28:42.573Z,2.08
2023-11-26T05:31:10.975Z,2.28
2023-11-26T05:33:37.699Z,2.10
2023-11-26T05:36:05.336Z,1.80
2023-11-26T05:38:32.555Z,2.20
2023-11-26T05:40:59.449Z,2.08
2023-11-26T05:43:26.683Z,2.20
2023-11-26T05:45:53.510Z,2.45
2023-11-26T05:48:20.442Z,2.58
2023-11-26T05:50:47.259Z,2.63
2023-11-26T05:53:14.063Z,2.25
2023-11-26T05:55:40.826Z,2.55
2023-11-26T05:58:07.649Z,2.38
2023-11-26T06:00:34.457Z,2.38
2023-11-26T06:03:01.276Z,2.40
2023-11-26T06:05:28.065Z,2.33
2023-11-26T06:07:54.921Z,2.20
2023-11-26T06:10:21.648Z,2.17
2023-11-26T06:12:48.404Z,2.17
2023-11-26T06:15:15.264Z,2.45
2023-11-26T06:17:42.011Z,2.58
2023-11-26T06:20:09.118Z,3.10
2023-11-26T06:22:35.887Z,2.58
2023-11-26T06:25:03.042Z,2.42
2023-11-26T06:27:29.774Z,2.60
2023-11-26T06:29:56.589Z,3.17
2023-11-26T06:32:23.421Z,3.30
2023-11-26T06:34:50.165Z,4.00
2023-11-26T06:37:16.872Z,4.65
2023-11-26T06:39:43.644Z,4.05
2023-11-26T06:42:10.453Z,4.30
2023-11-26T06:44:37.321Z,4.22
2023-11-26T06:47:04.177Z,3.92
2023-11-26T06:49:30.896Z,4.88
2023-11-26T06:51:57.632Z,4.10
2023-11-26T06:54:24.833Z,4.60
2023-11-26T06:56:51.574Z,4.60
2023-11-26T06:59:18.347Z,4.63
2023-11-26T07:01:45.070Z,4.05
2023-11-26T07:04:12.037Z,4.05
2023-11-26T07:06:41.961Z,3.92
2023-11-26T07:09:09.494Z,4.05
2023-11-26T07:11:36.507Z,4.18
2023-11-26T07:14:03.650Z,3.92
2023-11-26T07:16:30.355Z,3.30
2023-11-26T07:18:57.139Z,3.90
2023-11-26T07:21:25.572Z,3.70
2023-11-26T07:23:52.273Z,3.78
2023-11-26T07:26:19.005Z,3.67
2023-11-26T07:28:45.739Z,3.58
2023-11-26T07:31:16.755Z,3.67
2023-11-26T07:33:43.663Z,3.15
2023-11-26T07:36:16.962Z,3.63
2023-11-26T07:38:43.962Z,3.78
2023-11-26T07:41:11.474Z,3.53
2023-11-26T07:43:41.884Z,3.38
2023-11-26T07:46:09.658Z,3.45
2023-11-26T07:48:37.096Z,2.97
2023-11-26T07:51:04.433Z,3.95
2023-11-26T07:53:34.861Z,3.50
2023-11-26T07:56:01.852Z,3.53
2023-11-26T07:58:29.885Z,4.13
2023-11-26T08:00:56.669Z,3.83
2023-11-26T08:03:23.499Z,4.00
2023-11-26T08:05:51.070Z,3.70
2023-11-26T08:08:17.960Z,3.50
2023-11-26T08:10:44.696Z,3.75
2023-11-26T08:13:12.731Z,3.95
2023-11-26T08:15:40.234Z,3.08
2023-11-26T08:18:07.174Z,3.88
2023-11-26T08:20:34.353Z,3.30
2023-11-26T08:23:01.102Z,3.78
2023-11-26T08:25:27.929Z,3.47
2023-11-26T08:27:55.103Z,3.63
2023-11-26T08:30:21.889Z,3.90
2023-11-26T08:32:48.674Z,3.40
2023-11-26T08:35:15.567Z,3.20
2023-11-26T08:37:42.921Z,3.40
2023-11-26T08:40:10.734Z,3.38
2023-11-26T08:42:37.649Z,3.25
2023-11-26T08:45:04.804Z,3.22
2023-11-26T08:47:31.891Z,3.17
2023-11-26T08:49:58.674Z,3.03
2023-11-26T08:52:25.457Z,3.28
2023-11-26T08:54:52.356Z,2.83
2023-11-26T08:57:19.125Z,2.90
2023-11-26T08:59:45.869Z,2.20
2023-11-26T09:02:12.869Z,3.05
2023-11-26T09:04:39.751Z,2.78
2023-11-26T09:07:06.453Z,2.70
2023-11-26T09:09:33.204Z,2.67
2023-11-26T09:11:59.999Z,2.85
2023-11-26T09:14:26.777Z,2.80
2023-11-26T09:16:53.527Z,2.90
2023-11-26T09:19:20.297Z,2.85
2023-11-26T09:21:47.061Z,2.90
2023-11-26T09:24:13.817Z,2.78
2023-11-26T09:26:43.909Z,2.83
2023-11-26T09:29:28.139Z,2.53
2023-11-26T09:32:02.970Z,2.47
2023-11-26T09:34:32.678Z,2.35
2023-11-26T09:37:19.850Z,2.80
2023-11-26T09:40:02.056Z,1.80
2023-11-26T09:42:42.508Z,2.28
2023-11-26T09:45:37.069Z,1.98
2023-11-26T09:48:09.217Z,2.60
2023-11-26T09:50:36.953Z,2.10
2023-11-26T09:53:04.366Z,2.30
2023-11-26T09:55:41.132Z,2.40
2023-11-26T09:58:08.050Z,2.50
2023-11-26T10:00:34.962Z,2.00
2023-11-26T10:03:05.024Z,2.25
2023-11-26T10:05:31.898Z,1.75
2023-11-26T10:07:58.685Z,2.40
2023-11-26T10:10:25.496Z,2.40
2023-11-26T10:13:02.501Z,2.35
2023-11-26T10:15:31.612Z,2.17
2023-11-26T10:17:59.754Z,1.95
2023-11-26T10:20:27.056Z,2.22
2023-11-26T10:22:54.755Z,2.08
2023-11-26T10:25:21.737Z,2.17
2023-11-26T10:27:48.572Z,2.20
2023-11-26T10:30:25.049Z,1.90
2023-11-26T10:32:58.984Z,2.28
2023-11-26T10:35:25.973Z,2.00
2023-11-26T10:38:08.672Z,2.08
2023-11-26T10:40:35.425Z,2.17
2023-11-26T10:43:06.429Z,2.15
2023-11-26T10:45:33.709Z,2.42
2023-11-26T10:48:08.981Z,2.28
2023-11-26T10:51:02.045Z,1.95
2023-11-26T10:54:06.232Z,2.58
2023-11-26T10:56:40.448Z,2.15
2023-11-26T10:59:17.878Z,1.75
2023-11-26T11:01:47.878Z,2.15
2023-11-26T11:04:16.032Z,2.20
2023-11-26T11:06:44.226Z,2.28
2023-11-26T11:09:12.042Z,2.00
2023-11-26T11:11:50.763Z,2.20
2023-11-26T11:14:17.784Z,2.05
2023-11-26T11:16:44.612Z,1.90
2023-11-26T11:19:11.344Z,2.55
2023-11-26T11:21:48.108Z,2.40
2023-11-26T11:24:21.203Z,2.55
2023-11-26T11:26:48.123Z,2.58
2023-11-26T11:29:32.688Z,2.50
2023-11-26T11:31:59.645Z,2.40
2023-11-26T11:34:26.398Z,2.00
2023-11-26T11:36:55.438Z,2.42
2023-11-26T11:39:24.295Z,2.65
2023-11-26T11:42:03.196Z,1.77
2023-11-26T11:44:37.920Z,2.55
2023-11-26T11:47:06.154Z,2.33
2023-11-26T11:49:48.205Z,2.38
2023-11-26T11:52:15.950Z,2.33
2023-11-26T11:55:00.750Z,1.80
2023-11-26T11:57:44.867Z,1.85
2023-11-26T12:00:12.144Z,1.77
2023-11-26T12:02:40.215Z,1.67
2023-11-26T12:05:21.340Z,1.98
2023-11-26T12:07:48.363Z,2.40
2023-11-26T12:10:31.112Z,2.20
2023-11-26T12:13:05.418Z,2.58
2023-11-26T12:15:32.426Z,2.00
2023-11-26T12:18:00.046Z,1.92
2023-11-26T12:20:26.997Z,2.28
2023-11-26T12:22:54.176Z,2.13
2023-11-26T12:25:21.186Z,2.67
2023-11-26T12:27:48.365Z,2.35
2023-11-26T12:30:15.611Z,1.83
2023-11-26T12:32:43.282Z,2.13
2023-11-26T12:35:13.650Z,1.90
2023-11-26T12:37:42.814Z,2.15
2023-11-26T12:40:12.255Z,2.33
2023-11-26T12:42:39.669Z,2.13
2023-11-26T12:45:10.083Z,2.00
2023-11-26T12:47:55.588Z,1.90
2023-11-26T12:50:23.614Z,1.70
2023-11-26T12:52:51.640Z,2.03
2023-11-26T12:55:19.275Z,2.25
2023-11-26T12:57:46.567Z,1.92
2023-11-26T13:00:14.875Z,1.70
2023-11-26T13:02:46.038Z,1.88
2023-11-26T13:05:25.992Z,1.52
2023-11-26T13:07:52.748Z,1.90
2023-11-26T13:10:20.023Z,1.50
2023-11-26T13:12:46.925Z,1.80
2023-11-26T13:15:14.216Z,1.80
2023-11-26T13:17:41.642Z,1.88
2023-11-26T13:20:09.103Z,2.42
2023-11-26T13:22:35.889Z,2.15
2023-11-26T13:25:02.699Z,2.50
2023-11-26T13:27:29.588Z,3.35
2023-11-26T13:29:56.369Z,3.03
2023-11-26T13:32:23.197Z,2.67
2023-11-26T13:34:52.435Z,2.33
2023-11-26T13:37:19.262Z,2.78
2023-11-26T13:39:46.066Z,3.03
2023-11-26T13:42:12.865Z,1.60
2023-11-26T13:44:39.647Z,2.25
2023-11-26T13:47:06.527Z,2.70
2023-11-26T13:53:59.091Z,2.00
2023-11-26T14:00:02.493Z,2.00
2023-11-26T14:02:37.568Z,2.25
2023-11-26T14:05:04.814Z,2.17
2023-11-26T14:07:33.098Z,2.08
2023-11-26T14:10:05.377Z,2.35
2023-11-26T14:12:47.735Z,1.80
2023-11-26T14:15:33.343Z,1.90
2023-11-26T14:18:00.810Z,2.17
2023-11-26T14:20:58.582Z,2.00
2023-11-26T14:23:30.751Z,2.40
2023-11-26T14:26:12.571Z,1.65
2023-11-26T14:35:00.761Z,2.33
2023-11-26T14:44:44.930Z,2.65
2023-11-26T14:47:11.809Z,2.80
2023-11-26T14:49:38.584Z,2.30
2023-11-26T14:52:06.397Z,2.35
2023-11-26T14:54:34.526Z,2.45
2023-11-26T14:57:02.591Z,2.92
2023-11-26T14:59:29.561Z,2.70
2023-11-26T15:01:56.550Z,2.58
2023-11-26T15:04:23.468Z,2.85
2023-11-26T15:06:50.484Z,2.25
2023-11-26T15:09:17.312Z,2.53
2023-11-26T15:11:44.064Z,2.60
2023-11-26T15:14:10.864Z,2.65
2023-11-26T15:16:37.898Z,2.90
2023-11-26T15:19:04.886Z,2.25
2023-11-26T15:21:32.082Z,2.63
2023-11-26T15:23:59.009Z,2.75
2023-11-26T15:26:25.814Z,3.10
2023-11-26T15:28:53.179Z,2.75
2023-11-26T15:31:20.193Z,2.67
2023-11-26T15:33:47.219Z,2.30
2023-11-26T15:36:17.710Z,2.55
2023-11-26T15:38:44.765Z,2.75
2023-11-26T15:41:19.130Z,3.22
2023-11-26T15:43:46.395Z,2.90
2023-11-26T15:46:20.003Z,3.20
2023-11-26T15:48:48.140Z,2.92
2023-11-26T15:51:15.030Z,3.13
2023-11-26T15:53:42.003Z,3.42
2023-11-26T15:56:18.856Z,3.38
2023-11-26T15:58:46.909Z,3.88
2023-11-26T16:01:14.894Z,4.82
2023-11-26T16:03:42.557Z,5.05
2023-11-26T16:06:11.742Z,4.80
2023-11-26T16:08:39.245Z,4.65
2023-11-26T16:11:07.329Z,4.38
2023-11-26T16:13:34.081Z,5.10
2023-11-26T16:16:01.199Z,4.95
2023-11-26T16:18:29.056Z,5.18
2023-11-26T16:20:58.190Z,4.97
2023-11-26T16:23:25.170Z,5.00
2023-11-26T16:25:54.135Z,5.93
2023-11-26T16:28:20.862Z,5.75
2023-11-26T16:30:47.635Z,5.43
2023-11-26T16:33:14.502Z,6.00
2023-11-26T16:35:44.399Z,5.75
2023-11-26T16:38:11.614Z,6.53
2023-11-26T16:40:38.443Z,5.93
2023-11-26T16:43:05.303Z,6.13
2023-11-26T16:45:32.025Z,6.78
2023-11-26T16:47:58.818Z,5.70
2023-11-26T16:50:25.604Z,6.03
2023-11-26T16:52:52.559Z,6.78
2023-11-26T16:55:19.774Z,6.47
2023-11-26T16:57:46.480Z,6.60
2023-11-26T17:00:13.720Z,7.70
2023-11-26T17:02:41.257Z,7.63
2023-11-26T17:05:08.287Z,7.15
2023-11-26T17:07:35.074Z,7.50
2023-11-26T17:10:01.893Z,8.32
2023-11-26T17:12:28.995Z,6.95
2023-11-26T17:14:55.724Z,7.72
2023-11-26T17:17:22.541Z,6.93
2023-11-26T17:19:50.169Z,7.63
2023-11-26T17:22:17.893Z,6.93
2023-11-26T17:24:44.679Z,6.97
2023-11-26T17:27:11.397Z,8.85
2023-11-26T17:29:38.215Z,7.75
2023-11-26T17:32:05.517Z,6.13
2023-11-26T17:34:32.235Z,5.65
2023-11-26T17:36:59.166Z,6.05
2023-11-26T17:39:27.576Z,5.32
2023-11-26T17:41:54.983Z,5.13
2023-11-26T17:44:21.755Z,5.53
2023-11-26T17:46:48.612Z,5.90
2023-11-26T17:49:15.460Z,6.55
2023-11-26T17:51:42.318Z,6.07
2023-11-26T17:54:09.162Z,7.07
2023-11-26T17:56:36.219Z,7.28
2023-11-26T17:59:03.905Z,7.03
2023-11-26T18:01:32.896Z,7.50
2023-11-26T18:03:59.879Z,7.22
2023-11-26T18:06:26.852Z,7.35
2023-11-26T18:08:55.515Z,7.70
2023-11-26T18:11:22.570Z,7.00
2023-11-26T18:13:49.380Z,6.97
2023-11-26T18:16:16.112Z,5.93
2023-11-26T18:18:42.830Z,6.75
2023-11-26T18:21:09.597Z,6.35
2023-11-26T18:23:36.369Z,6.55
2023-11-26T18:26:09.901Z,6.28
2023-11-26T18:28:36.714Z,6.25
2023-11-26T18:31:03.645Z,6.10
2023-11-26T18:33:30.441Z,6.80
2023-11-26T18:35:57.215Z,7.05
2023-11-26T18:38:24.761Z,7.15
2023-11-26T18:40:51.492Z,6.55
2023-11-26T18:43:18.217Z,7.00
2023-11-26T18:45:45.008Z,7.13
2023-11-26T18:48:11.949Z,7.63
2023-11-26T18:50:38.994Z,8.38
2023-11-26T18:53:06.473Z,9.40
2023-11-26T18:55:37.560Z,9.20
2023-11-26T18:58:04.402Z,9.75
2023-11-26T19:00:31.338Z,9.13
2023-11-26T19:02:58.214Z,9.55
2023-11-26T19:05:25.014Z,9.52
2023-11-26T19:07:51.812Z,9.48
2023-11-26T19:10:18.767Z,10.57
2023-11-26T19:12:47.280Z,9.88
2023-11-26T19:15:14.311Z,10.00
2023-11-26T19:17:41.212Z,9.55
2023-11-26T19:20:11.350Z,9.43
2023-11-26T19:22:38.194Z,9.32
2023-11-26T19:25:05.453Z,10.75
2023-11-26T19:27:32.364Z,9.95
2023-11-26T19:29:59.185Z,9.00
2023-11-26T19:32:26.578Z,10.32
2023-11-26T19:34:53.395Z,10.25
2023-11-26T19:37:20.237Z,9.70
2023-11-26T19:39:47.178Z,9.48
2023-11-26T19:42:16.421Z,9.48
2023-11-26T19:44:43.483Z,9.70
2023-11-26T19:47:10.227Z,9.75
2023-11-26T19:49:36.943Z,10.60
2023-11-26T19:52:03.903Z,10.25
2023-11-26T19:54:30.715Z,9.35
2023-11-26T19:56:57.422Z,9.93
2023-11-26T19:59:24.824Z,9.20
2023-11-26T20:01:54.494Z,9.25
2023-11-26T20:04:21.330Z,9.70
2023-11-26T20:06:48.089Z,10.65
2023-11-26T20:09:14.895Z,10.15
2023-11-26T20:11:41.744Z,9.68
2023-11-26T20:14:08.532Z,10.52
2023-11-26T20:16:35.261Z,10.88
2023-11-26T20:19:02.048Z,10.82
2023-11-26T20:21:28.865Z,10.30
2023-11-26T20:23:55.656Z,10.82
2023-11-26T20:26:23.184Z,10.32
2023-11-26T20:28:50.612Z,10.35
2023-11-26T20:31:17.538Z,9.68
2023-11-26T20:33:44.585Z,10.68
2023-11-26T20:36:21.649Z,9.98
2023-11-26T20:38:51.029Z,10.15
2023-11-26T20:41:19.330Z,9.00
2023-11-26T20:43:46.180Z,9.70
2023-11-26T20:46:20.293Z,8.77
2023-11-26T20:48:47.244Z,9.20
2023-11-26T20:51:21.013Z,9.18
2023-11-26T20:53:48.284Z,8.90
2023-11-26T20:56:28.197Z,8.23
2023-11-26T20:58:56.208Z,9.40
2023-11-26T21:01:23.100Z,8.45
2023-11-26T21:03:50.040Z,8.13
2023-11-26T21:06:17.062Z,9.48
2023-11-26T21:08:43.771Z,9.95
2023-11-26T21:11:12.186Z,9.50
2023-11-26T21:13:40.225Z,10.88
2023-11-26T21:16:07.542Z,8.30
2023-11-26T21:18:34.357Z,8.45
2023-11-26T21:21:04.335Z,9.35
2023-11-26T21:23:31.169Z,9.07
2023-11-26T21:25:58.011Z,8.48
2023-11-26T21:28:24.835Z,7.65
2023-11-26T21:30:51.564Z,7.68
2023-11-26T21:33:20.723Z,7.85
2023-11-26T21:35:47.552Z,8.02
2023-11-26T21:38:14.229Z,8.52
2023-11-26T21:40:45.389Z,8.68
2023-11-26T21:45:43.493Z,7.60
2023-11-26T21:48:20.581Z,7.15
2023-11-26T21:50:47.731Z,7.22
2023-11-26T21:53:14.667Z,7.30
2023-11-26T21:55:41.402Z,7.95
2023-11-26T21:58:08.147Z,5.85
2023-11-26T22:00:34.899Z,5.70
2023-11-26T22:03:01.728Z,6.45
2023-11-26T22:05:28.529Z,5.55
2023-11-26T22:07:55.229Z,5.55
2023-11-26T22:10:21.911Z,6.15
2023-11-26T22:12:48.702Z,6.53
2023-11-26T22:15:15.583Z,6.22
2023-11-26T22:17:42.403Z,6.15
2023-11-26T22:20:09.848Z,6.88
2023-11-26T22:22:36.563Z,6.10
2023-11-26T22:25:03.481Z,6.63
2023-11-26T22:27:30.246Z,6.63
2023-11-26T22:29:56.954Z,7.55
2023-11-26T22:32:23.678Z,14.30
2023-11-26T22:34:50.436Z,14.90
2023-11-26T22:37:17.151Z,17.52
2023-11-26T22:39:43.926Z,17.00
2023-11-26T22:42:10.645Z,17.35
2023-11-26T22:44:37.312Z,20.05
2023-11-26T22:47:04.119Z,18.98
2023-11-26T22:49:30.840Z,20.25
2023-11-26T22:51:57.562Z,19.38
2023-11-26T22:54:24.798Z,19.38
2023-11-26T22:56:51.469Z,18.75
2023-11-26T22:59:18.120Z,18.58
2023-11-26T23:01:45.036Z,18.40
2023-11-26T23:04:11.873Z,19.33
2023-11-26T23:06:38.635Z,18.23
2023-11-26T23:09:05.394Z,19.10
2023-11-26T23:11:32.076Z,17.98
2023-11-26T23:13:58.797Z,17.60
2023-11-26T23:16:25.630Z,16.30
2023-11-26T23:18:52.419Z,16.02
2023-11-26T23:21:19.191Z,15.65
2023-11-26T23:23:51.772Z,16.45
2023-11-26T23:26:21.085Z,16.10
2023-11-26T23:28:48.031Z,17.25
2023-11-26T23:31:19.031Z,17.08
2023-11-26T23:33:46.911Z,17.48
2023-11-26T23:36:14.993Z,16.60
2023-11-26T23:38:41.871Z,15.50
2023-11-26T23:41:11.816Z,16.33
2023-11-26T23:43:39.792Z,16.05
2023-11-26T23:46:06.987Z,16.08
2023-11-26T23:48:33.768Z,14.82
2023-11-26T23:51:00.466Z,13.68
2023-11-26T23:53:27.197Z,14.02
2023-11-26T23:55:54.791Z,14.40
2023-11-26T23:58:21.541Z,13.63
